Time;durP1;ratioP1;P1;durP2;ratioP2;P2;SDS_P1;SDS_P2;PMS_P1;PMS_P2;Temp;Humidity;BMP_temperature;BMP_pressure;BME280_temperature;BME280_humidity;BME280_pressure;Samples;Min_cycle;Max_cycle;Signal;HPM_P1;HPM_P2
2023/06/29 00:00:11;;;;;;;5.38;2.90;;;;;;;;;;606202;24;1456;-73
2023/06/29 00:00:31;;;;;;;4.38;2.63;;;;;;;;;;609171;24;1225;-72
2023/06/29 00:00:47;;;;;;;3.97;2.63;;;;;;;;;;610332;24;1413;-74
2023/06/29 00:01:14;;;;;;;4.43;2.70;;;;;;;;;;611030;24;855;-76
2023/06/29 00:01:33;;;;;;;4.38;2.53;;;;;;;;;;611667;24;1296;-74
2023/06/29 00:01:49;;;;;;;4.40;2.50;;;;;;;;;;614613;23;1238;-74
2023/06/29 00:02:11;;;;;;;3.75;2.60;;;;;;;;;;610789;24;1334;-74
2023/06/29 00:02:29;;;;;;;5.90;2.80;;;;;;;;;;611908;24;1467;-74
2023/06/29 00:03:11;;;;;;;4.55;2.60;;;;;;;;;;607108;24;1230;-75
2023/06/29 00:03:27;;;;;;;4.53;2.60;;;;;;;;;;609106;24;1479;-75
2023/06/29 00:03:43;;;;;;;3.60;2.58;;;;;;;;;;606076;24;1241;-74
2023/06/29 00:04:21;;;;;;;3.15;2.50;;;;;;;;;;609324;24;1543;-74
2023/06/29 00:04:38;;;;;;;3.72;2.60;;;;;;;;;;614901;23;927;-74
2023/06/29 00:04:54;;;;;;;3.85;2.65;;;;;;;;;;614835;23;1324;-74
2023/06/29 00:05:13;;;;;;;3.60;2.35;;;;;;;;;;612056;23;938;-74
2023/06/29 00:05:35;;;;;;;4.07;2.50;;;;;;;;;;611773;24;1269;-75
2023/06/29 00:05:55;;;;;;;5.80;2.80;;;;;;;;;;608874;24;1620;-74
2023/06/29 00:06:14;;;;;;;5.97;2.70;;;;;;;;;;605867;24;1507;-74
2023/06/29 00:06:36;;;;;;;4.22;2.70;;;;;;;;;;609124;24;1019;-73
2023/06/29 00:06:54;;;;;;;3.30;2.40;;;;;;;;;;609094;24;1245;-73
2023/06/29 00:07:10;;;;;;;4.07;2.47;;;;;;;;;;605353;24;1353;-74
2023/06/29 00:07:26;;;;;;;4.80;2.65;;;;;;;;;;611243;24;1409;-74
2023/06/29 00:07:43;;;;;;;4.05;2.47;;;;;;;;;;612651;23;1432;-73
2023/06/29 00:08:08;;;;;;;4.07;2.53;;;;;;;;;;614905;23;1392;-73
2023/06/29 00:08:25;;;;;;;3.85;2.50;;;;;;;;;;614588;23;1395;-75
2023/06/29 00:08:41;;;;;;;4.28;2.40;;;;;;;;;;609421;24;1477;-72
2023/06/29 00:08:58;;;;;;;4.18;2.38;;;;;;;;;;612012;24;1202;-73
2023/06/29 00:09:14;;;;;;;3.85;2.50;;;;;;;;;;605182;24;1523;-73
2023/06/29 00:09:30;;;;;;;4.45;2.70;;;;;;;;;;609168;24;1282;-72
2023/06/29 00:09:46;;;;;;;4.32;2.78;;;;;;;;;;609268;24;1110;-72
2023/06/29 00:10:03;;;;;;;3.95;2.45;;;;;;;;;;609283;24;1467;-72
2023/06/29 00:10:19;;;;;;;4.70;2.58;;;;;;;;;;603434;24;1356;-73
2023/06/29 00:10:35;;;;;;;3.55;2.47;;;;;;;;;;609309;24;1120;-73
2023/06/29 00:10:53;;;;;;;2.80;2.20;;;;;;;;;;609262;24;1191;-73
2023/06/29 00:11:09;;;;;;;4.03;2.45;;;;;;;;;;608597;24;1445;-73
2023/06/29 00:11:25;;;;;;;4.45;2.72;;;;;;;;;;611293;24;1139;-73
2023/06/29 00:11:41;;;;;;;4.43;2.75;;;;;;;;;;612371;24;813;-73
2023/06/29 00:11:57;;;;;;;4.15;2.65;;;;;;;;;;612190;24;1312;-73
2023/06/29 00:12:13;;;;;;;3.50;2.40;;;;;;;;;;609751;23;943;-72
2023/06/29 00:12:29;;;;;;;4.75;2.58;;;;;;;;;;615293;23;892;-74
2023/06/29 00:12:45;;;;;;;5.40;2.80;;;;;;;;;;611880;23;1019;-73
2023/06/29 00:13:00;;;;;;;4.05;2.55;;;;;;;;;;616124;23;1007;-74
2023/06/29 00:13:16;;;;;;;4.07;2.60;;;;;;;;;;611293;23;1376;-73
2023/06/29 00:13:35;;;;;;;4.20;2.50;;;;;;;;;;614066;23;1131;-74
2023/06/29 00:13:51;;;;;;;4.90;2.42;;;;;;;;;;614693;23;1261;-74
2023/06/29 00:14:08;;;;;;;5.38;2.42;;;;;;;;;;609206;24;1242;-73
2023/06/29 00:14:24;;;;;;;5.43;2.67;;;;;;;;;;613047;23;1358;-74
2023/06/29 00:14:40;;;;;;;5.00;2.75;;;;;;;;;;622231;23;835;-73
2023/06/29 00:14:56;;;;;;;4.60;2.55;;;;;;;;;;624004;23;1292;-73
2023/06/29 00:15:12;;;;;;;5.93;2.63;;;;;;;;;;620408;23;788;-74
2023/06/29 00:15:28;;;;;;;6.13;2.63;;;;;;;;;;621285;23;1381;-73
2023/06/29 00:15:44;;;;;;;4.57;2.70;;;;;;;;;;618404;23;1492;-72
2023/06/29 00:16:00;;;;;;;4.70;2.80;;;;;;;;;;615339;23;1343;-74
2023/06/29 00:16:37;;;;;;;4.00;2.70;;;;;;;;;;612406;23;1324;-72
2023/06/29 00:25:09;;;;;;;4.18;2.67;;;;;;;;;;628041;23;903;-74
2023/06/29 00:25:25;;;;;;;3.95;2.60;;;;;;;;;;627030;23;1929;-73
2023/06/29 00:25:46;;;;;;;3.95;2.78;;;;;;;;;;627501;23;843;-73
2023/06/29 00:26:16;;;;;;;3.60;2.63;;;;;;;;;;623181;23;1254;-74
2023/06/29 00:26:32;;;;;;;3.95;2.60;;;;;;;;;;621893;23;1188;-74
2023/06/29 00:26:47;;;;;;;4.20;2.60;;;;;;;;;;617565;23;1605;-74
2023/06/29 00:27:13;;;;;;;4.00;2.70;;;;;;;;;;620984;23;863;-72
2023/06/29 00:27:28;;;;;;;4.03;2.67;;;;;;;;;;621285;23;919;-73
2023/06/29 00:27:44;;;;;;;3.88;2.60;;;;;;;;;;621494;23;1361;-72
2023/06/29 00:28:01;;;;;;;4.32;2.60;;;;;;;;;;623822;23;1545;-73
2023/06/29 00:28:17;;;;;;;4.40;2.50;;;;;;;;;;616400;23;1454;-73
2023/06/29 00:28:32;;;;;;;4.53;2.53;;;;;;;;;;624292;23;1522;-73
2023/06/29 00:28:48;;;;;;;4.95;2.50;;;;;;;;;;624468;23;1417;-74
2023/06/29 00:29:11;;;;;;;4.95;2.70;;;;;;;;;;622952;23;1185;-74
2023/06/29 00:29:27;;;;;;;4.45;2.60;;;;;;;;;;624068;23;1430;-74
2023/06/29 00:29:52;;;;;;;3.70;2.37;;;;;;;;;;623239;23;1259;-75
2023/06/29 00:30:08;;;;;;;5.03;2.67;;;;;;;;;;619468;23;1288;-74
2023/06/29 00:30:25;;;;;;;4.90;2.80;;;;;;;;;;617126;23;1277;-73
2023/06/29 00:30:41;;;;;;;3.70;2.53;;;;;;;;;;620222;23;1336;-73
2023/06/29 00:30:56;;;;;;;2.67;2.30;;;;;;;;;;618460;23;1355;-73
2023/06/29 00:31:12;;;;;;;3.05;2.50;;;;;;;;;;615284;23;1162;-73
2023/06/29 00:31:28;;;;;;;3.53;2.70;;;;;;;;;;618838;23;805;-74
2023/06/29 00:31:48;;;;;;;4.18;2.70;;;;;;;;;;618404;23;805;-73
2023/06/29 00:32:07;;;;;;;4.25;2.65;;;;;;;;;;619385;23;1265;-74
2023/06/29 00:32:23;;;;;;;3.58;2.58;;;;;;;;;;619807;23;1020;-75
2023/06/29 00:32:39;;;;;;;3.30;2.50;;;;;;;;;;618130;23;1181;-73
2023/06/29 00:32:55;;;;;;;3.65;2.60;;;;;;;;;;620759;23;1766;-73
2023/06/29 00:33:11;;;;;;;3.67;2.63;;;;;;;;;;614298;23;1320;-75
2023/06/29 00:33:27;;;;;;;4.55;2.75;;;;;;;;;;618405;23;1193;-74
2023/06/29 00:33:42;;;;;;;4.50;2.60;;;;;;;;;;618565;23;827;-73
2023/06/29 00:33:58;;;;;;;3.75;2.67;;;;;;;;;;620199;23;887;-74
2023/06/29 00:34:17;;;;;;;4.22;2.67;;;;;;;;;;613353;23;1284;-73
2023/06/29 00:34:33;;;;;;;4.60;2.80;;;;;;;;;;623079;23;973;-74
2023/06/29 00:34:49;;;;;;;3.63;2.70;;;;;;;;;;622804;23;1295;-74
2023/06/29 00:35:05;;;;;;;4.47;2.65;;;;;;;;;;617766;23;1190;-75
2023/06/29 00:35:21;;;;;;;5.05;2.80;;;;;;;;;;616434;23;1323;-74
2023/06/29 00:35:37;;;;;;;4.13;2.90;;;;;;;;;;621536;23;1432;-74
2023/06/29 00:35:52;;;;;;;4.10;2.70;;;;;;;;;;617923;23;1291;-73
2023/06/29 00:36:28;;;;;;;4.47;2.72;;;;;;;;;;618618;23;985;-74
2023/06/29 00:36:50;;;;;;;5.25;2.65;;;;;;;;;;621586;23;1623;-74
2023/06/29 00:37:11;;;;;;;5.07;2.90;;;;;;;;;;623530;23;1405;-74
2023/06/29 00:37:27;;;;;;;4.47;2.92;;;;;;;;;;623809;23;1474;-74
2023/06/29 00:37:43;;;;;;;4.03;2.75;;;;;;;;;;618656;23;1201;-74
2023/06/29 00:37:58;;;;;;;4.93;2.67;;;;;;;;;;618890;23;792;-74
2023/06/29 00:38:14;;;;;;;5.80;2.95;;;;;;;;;;612990;23;1311;-74
2023/06/29 00:38:30;;;;;;;5.33;2.90;;;;;;;;;;618985;23;1319;-74
2023/06/29 00:38:45;;;;;;;4.75;2.72;;;;;;;;;;618971;23;1363;-74
2023/06/29 00:39:01;;;;;;;4.43;2.78;;;;;;;;;;618810;23;1549;-74
2023/06/29 00:39:17;;;;;;;4.77;2.83;;;;;;;;;;616500;23;1268;-73
2023/06/29 00:39:34;;;;;;;5.18;2.80;;;;;;;;;;620804;23;1173;-73
2023/06/29 00:39:49;;;;;;;4.75;2.80;;;;;;;;;;623277;23;1383;-74
2023/06/29 00:40:09;;;;;;;4.50;2.70;;;;;;;;;;623713;23;1051;-75
2023/06/29 00:40:27;;;;;;;5.53;2.60;;;;;;;;;;624444;23;954;-73
2023/06/29 00:40:43;;;;;;;4.05;2.50;;;;;;;;;;620952;23;1291;-73
2023/06/29 00:41:20;;;;;;;5.22;2.58;;;;;;;;;;621120;23;1317;-73
2023/06/29 00:41:36;;;;;;;4.32;3.00;;;;;;;;;;621822;23;1452;-74
2023/06/29 00:41:55;;;;;;;4.68;2.80;;;;;;;;;;621453;23;1149;-75
2023/06/29 00:42:11;;;;;;;4.47;2.67;;;;;;;;;;619806;23;1335;-73
2023/06/29 00:42:27;;;;;;;4.28;2.70;;;;;;;;;;624649;23;1354;-73
2023/06/29 00:42:48;;;;;;;3.88;2.70;;;;;;;;;;619463;23;1364;-74
2023/06/29 00:43:08;;;;;;;3.95;2.50;;;;;;;;;;620370;23;1178;-74
2023/06/29 00:43:24;;;;;;;4.25;2.50;;;;;;;;;;615624;23;1448;-74
2023/06/29 00:43:43;;;;;;;5.38;2.72;;;;;;;;;;618798;23;1459;-74
2023/06/29 00:44:00;;;;;;;4.97;2.63;;;;;;;;;;616754;23;1359;-73
2023/06/29 00:44:20;;;;;;;4.47;2.70;;;;;;;;;;612652;23;1621;-73
2023/06/29 00:44:35;;;;;;;4.20;2.70;;;;;;;;;;618299;23;1326;-73
2023/06/29 00:44:51;;;;;;;4.30;2.80;;;;;;;;;;615330;23;1207;-74
2023/06/29 00:45:11;;;;;;;3.37;2.67;;;;;;;;;;612914;23;1360;-74
2023/06/29 00:45:27;;;;;;;3.90;2.50;;;;;;;;;;610328;23;1897;-73
2023/06/29 00:45:43;;;;;;;4.75;2.78;;;;;;;;;;615320;23;1543;-73
2023/06/29 00:45:59;;;;;;;3.88;2.70;;;;;;;;;;616382;23;1242;-73
2023/06/29 00:46:18;;;;;;;4.30;2.60;;;;;;;;;;616324;23;1152;-74
2023/06/29 00:46:34;;;;;;;4.38;2.60;;;;;;;;;;625332;23;1588;-75
2023/06/29 00:46:51;;;;;;;3.70;2.58;;;;;;;;;;621809;23;1548;-75
2023/06/29 00:47:08;;;;;;;4.85;2.78;;;;;;;;;;622358;23;1035;-75
2023/06/29 00:47:24;;;;;;;4.40;2.75;;;;;;;;;;617535;23;1376;-74
2023/06/29 00:47:40;;;;;;;3.30;2.60;;;;;;;;;;621390;23;1177;-74
2023/06/29 00:47:56;;;;;;;4.47;2.60;;;;;;;;;;618134;23;1423;-75
2023/06/29 00:48:19;;;;;;;4.18;2.70;;;;;;;;;;618285;23;1235;-73
2023/06/29 00:48:38;;;;;;;3.42;2.70;;;;;;;;;;618857;23;1508;-74
2023/06/29 00:48:54;;;;;;;3.75;2.58;;;;;;;;;;616002;23;1347;-73
2023/06/29 00:49:22;;;;;;;4.47;2.70;;;;;;;;;;612620;23;1529;-74
2023/06/29 00:49:38;;;;;;;4.05;2.63;;;;;;;;;;615814;23;1384;-74
2023/06/29 00:49:55;;;;;;;4.03;2.60;;;;;;;;;;615223;23;864;-75
2023/06/29 00:50:12;;;;;;;4.55;2.80;;;;;;;;;;617554;23;1169;-74
2023/06/29 00:50:28;;;;;;;4.85;2.90;;;;;;;;;;615612;23;1130;-74
2023/06/29 00:50:47;;;;;;;3.92;2.83;;;;;;;;;;616801;23;1420;-74
2023/06/29 00:51:06;;;;;;;3.35;2.58;;;;;;;;;;616404;23;1101;-75
2023/06/29 00:51:22;;;;;;;3.70;2.60;;;;;;;;;;615581;23;1138;-75
2023/06/29 00:51:38;;;;;;;4.35;2.60;;;;;;;;;;619255;23;820;-75
2023/06/29 00:52:23;;;;;;;3.70;2.60;;;;;;;;;;614647;23;1362;-73
2023/06/29 00:52:39;;;;;;;4.00;2.80;;;;;;;;;;611724;23;1287;-75
2023/06/29 00:52:56;;;;;;;4.47;2.92;;;;;;;;;;615330;23;1206;-75
2023/06/29 00:53:15;;;;;;;5.07;2.75;;;;;;;;;;619224;23;915;-75
2023/06/29 00:53:31;;;;;;;4.47;2.70;;;;;;;;;;624524;23;1382;-73
2023/06/29 00:53:47;;;;;;;5.63;2.90;;;;;;;;;;626716;23;1017;-75
2023/06/29 00:54:12;;;;;;;4.78;2.65;;;;;;;;;;624611;23;1342;-75
2023/06/29 00:54:28;;;;;;;4.03;2.70;;;;;;;;;;623545;23;1474;-75
2023/06/29 00:54:44;;;;;;;4.10;2.80;;;;;;;;;;622517;23;1295;-74
2023/06/29 00:55:00;;;;;;;4.95;2.80;;;;;;;;;;619231;23;1582;-74
2023/06/29 00:55:16;;;;;;;4.32;2.60;;;;;;;;;;611526;23;1297;-72
2023/06/29 00:55:31;;;;;;;4.18;2.80;;;;;;;;;;616649;23;864;-73
2023/06/29 00:55:47;;;;;;;5.03;3.10;;;;;;;;;;613551;24;1209;-74
2023/06/29 00:56:06;;;;;;;5.10;3.10;;;;;;;;;;616318;23;1385;-73
2023/06/29 00:56:22;;;;;;;4.55;2.75;;;;;;;;;;608840;24;1128;-74
2023/06/29 00:56:38;;;;;;;5.07;2.70;;;;;;;;;;616022;23;1101;-73
2023/06/29 00:56:58;;;;;;;5.35;2.88;;;;;;;;;;618288;23;1355;-73
2023/06/29 00:57:14;;;;;;;4.32;2.72;;;;;;;;;;609403;23;1178;-74
2023/06/29 00:57:30;;;;;;;4.38;2.85;;;;;;;;;;613137;24;1352;-73
2023/06/29 00:57:46;;;;;;;4.90;2.90;;;;;;;;;;615813;23;1010;-74
2023/06/29 00:58:11;;;;;;;4.53;2.70;;;;;;;;;;616167;23;1300;-73
2023/06/29 00:58:26;;;;;;;5.53;2.70;;;;;;;;;;616208;23;1483;-72
2023/06/29 00:58:43;;;;;;;4.78;2.70;;;;;;;;;;616519;23;1291;-75
2023/06/29 00:58:59;;;;;;;5.28;2.92;;;;;;;;;;616468;23;1390;-74
2023/06/29 00:59:15;;;;;;;4.87;2.80;;;;;;;;;;614911;23;804;-73
2023/06/29 00:59:31;;;;;;;5.07;2.70;;;;;;;;;;618933;23;1212;-75
2023/06/29 00:59:47;;;;;;;6.22;2.83;;;;;;;;;;619840;23;852;-73
2023/06/29 01:00:05;;;;;;;6.05;2.97;;;;;;;;;;622148;23;1292;-74
2023/06/29 01:00:21;;;;;;;4.32;2.90;;;;;;;;;;618620;23;1154;-73
2023/06/29 01:00:45;;;;;;;4.07;2.80;;;;;;;;;;617080;23;1431;-72
2023/06/29 01:01:01;;;;;;;4.07;2.50;;;;;;;;;;619493;23;1528;-73
2023/06/29 01:01:17;;;;;;;3.42;2.55;;;;;;;;;;613880;23;1427;-74
2023/06/29 01:01:33;;;;;;;3.30;2.55;;;;;;;;;;619591;23;1303;-75
2023/06/29 01:01:49;;;;;;;3.33;2.50;;;;;;;;;;619376;23;1390;-74
2023/06/29 01:02:08;;;;;;;3.63;2.53;;;;;;;;;;617035;23;1551;-75
2023/06/29 01:02:24;;;;;;;4.40;2.80;;;;;;;;;;619296;23;1335;-74
2023/06/29 01:02:40;;;;;;;3.67;2.67;;;;;;;;;;619372;23;1470;-74
2023/06/29 01:02:56;;;;;;;3.50;2.65;;;;;;;;;;619221;23;1444;-74
2023/06/29 01:03:12;;;;;;;3.35;2.50;;;;;;;;;;614549;23;824;-74
2023/06/29 01:03:27;;;;;;;3.37;2.47;;;;;;;;;;615922;23;1530;-74
2023/06/29 01:03:44;;;;;;;3.60;2.55;;;;;;;;;;616522;23;1662;-75
2023/06/29 01:04:00;;;;;;;4.05;2.70;;;;;;;;;;613919;23;1411;-75
2023/06/29 01:04:22;;;;;;;4.85;2.80;;;;;;;;;;613549;23;1348;-74
2023/06/29 01:04:40;;;;;;;3.72;2.70;;;;;;;;;;610994;24;1405;-74
2023/06/29 01:04:58;;;;;;;3.75;2.72;;;;;;;;;;616632;23;1024;-73
2023/06/29 01:05:15;;;;;;;4.32;2.80;;;;;;;;;;610672;23;1895;-74
2023/06/29 01:05:33;;;;;;;3.75;2.63;;;;;;;;;;616040;23;1335;-73
2023/06/29 01:05:55;;;;;;;4.20;2.70;;;;;;;;;;617307;23;1404;-74
2023/06/29 01:06:16;;;;;;;4.70;2.80;;;;;;;;;;617844;23;858;-74
2023/06/29 01:06:46;;;;;;;4.55;2.70;;;;;;;;;;617842;23;1224;-74
2023/06/29 01:07:15;;;;;;;3.80;2.63;;;;;;;;;;619749;23;962;-75
2023/06/29 01:07:44;;;;;;;4.32;2.50;;;;;;;;;;622748;23;914;-74
2023/06/29 01:08:14;;;;;;;3.63;2.53;;;;;;;;;;623061;23;1272;-75
2023/06/29 01:08:39;;;;;;;5.45;2.88;;;;;;;;;;623043;23;1568;-75
2023/06/29 01:09:04;;;;;;;6.68;2.63;;;;;;;;;;621077;23;1356;-74
2023/06/29 01:09:21;;;;;;;5.82;2.78;;;;;;;;;;616849;23;1247;-74
2023/06/29 01:09:37;;;;;;;3.85;2.85;;;;;;;;;;617025;23;1423;-74
2023/06/29 01:09:57;;;;;;;3.88;2.83;;;;;;;;;;618471;23;804;-74
2023/06/29 01:10:35;;;;;;;3.33;2.60;;;;;;;;;;614338;23;1272;-74
2023/06/29 01:10:52;;;;;;;4.13;2.78;;;;;;;;;;618039;23;1591;-74
2023/06/29 01:11:16;;;;;;;4.45;2.80;;;;;;;;;;614319;23;1359;-74
2023/06/29 01:11:37;;;;;;;4.13;2.70;;;;;;;;;;619341;23;1431;-73
2023/06/29 01:12:06;;;;;;;4.30;2.60;;;;;;;;;;620279;23;1353;-74
2023/06/29 01:12:23;;;;;;;2.80;2.45;;;;;;;;;;615281;23;1372;-73
2023/06/29 01:12:49;;;;;;;3.83;2.55;;;;;;;;;;611907;23;1266;-73
2023/06/29 01:13:20;;;;;;;4.82;2.80;;;;;;;;;;614886;23;1569;-74
2023/06/29 01:13:39;;;;;;;5.07;2.90;;;;;;;;;;616459;23;1477;-74
2023/06/29 01:13:59;;;;;;;4.47;2.63;;;;;;;;;;617918;23;1421;-74
2023/06/29 01:14:29;;;;;;;5.07;2.60;;;;;;;;;;617757;23;1261;-74
2023/06/29 01:14:50;;;;;;;6.03;2.40;;;;;;;;;;618350;23;1163;-73
2023/06/29 01:15:16;;;;;;;5.35;2.60;;;;;;;;;;621147;23;1322;-74
2023/06/29 01:15:45;;;;;;;3.47;2.58;;;;;;;;;;622626;23;1298;-74
2023/06/29 01:16:08;;;;;;;4.80;2.78;;;;;;;;;;622798;23;1472;-75
2023/06/29 01:16:32;;;;;;;3.78;2.80;;;;;;;;;;618625;23;1317;-75
2023/06/29 01:16:53;;;;;;;4.32;2.90;;;;;;;;;;617296;23;1478;-74
2023/06/29 01:17:18;;;;;;;4.88;3.03;;;;;;;;;;616628;23;1315;-73
2023/06/29 01:17:37;;;;;;;4.82;2.88;;;;;;;;;;619850;23;903;-75
2023/06/29 01:18:12;;;;;;;3.67;2.70;;;;;;;;;;621312;23;1316;-74
2023/06/29 01:18:35;;;;;;;5.07;2.58;;;;;;;;;;621671;23;1514;-74
2023/06/29 01:18:55;;;;;;;3.80;2.60;;;;;;;;;;617161;23;907;-75
2023/06/29 01:19:23;;;;;;;3.80;2.50;;;;;;;;;;616319;23;1394;-74
2023/06/29 01:19:43;;;;;;;4.40;2.70;;;;;;;;;;622040;23;1596;-75
2023/06/29 01:20:21;;;;;;;3.83;2.63;;;;;;;;;;622561;23;1098;-75
2023/06/29 01:20:53;;;;;;;4.13;2.78;;;;;;;;;;623096;23;1291;-74
2023/06/29 01:21:27;;;;;;;4.32;2.78;;;;;;;;;;619943;23;1477;-74
2023/06/29 01:21:57;;;;;;;4.25;2.85;;;;;;;;;;622462;23;1341;-74
2023/06/29 01:22:36;;;;;;;4.07;2.92;;;;;;;;;;616334;23;1443;-75
2023/06/29 01:23:00;;;;;;;5.00;2.70;;;;;;;;;;619940;23;1414;-74
2023/06/29 01:23:41;;;;;;;4.30;2.70;;;;;;;;;;617537;23;851;-73
2023/06/29 01:23:59;;;;;;;3.78;2.55;;;;;;;;;;625996;23;910;-74
2023/06/29 01:24:22;;;;;;;4.70;2.60;;;;;;;;;;619211;23;1339;-74
2023/06/29 01:24:40;;;;;;;4.63;2.75;;;;;;;;;;625986;23;1138;-74
2023/06/29 01:24:56;;;;;;;4.47;2.72;;;;;;;;;;623759;23;1275;-74
2023/06/29 01:25:16;;;;;;;4.50;2.72;;;;;;;;;;621763;23;1452;-74
2023/06/29 01:25:36;;;;;;;5.13;2.70;;;;;;;;;;625960;23;1429;-74
2023/06/29 01:25:59;;;;;;;4.60;2.50;;;;;;;;;;625910;23;1455;-74
2023/06/29 01:26:18;;;;;;;3.90;2.45;;;;;;;;;;617615;23;1338;-75
2023/06/29 01:26:48;;;;;;;4.75;2.70;;;;;;;;;;623073;23;1370;-74
2023/06/29 01:27:14;;;;;;;4.78;2.70;;;;;;;;;;622222;23;1566;-74
2023/06/29 01:27:48;;;;;;;3.78;2.50;;;;;;;;;;621602;23;880;-75
2023/06/29 01:28:11;;;;;;;4.07;2.53;;;;;;;;;;619394;23;1061;-75
2023/06/29 01:28:28;;;;;;;3.70;2.50;;;;;;;;;;620224;23;1335;-75
2023/06/29 01:28:48;;;;;;;3.95;2.70;;;;;;;;;;616832;23;1534;-74
2023/06/29 01:29:08;;;;;;;4.72;2.80;;;;;;;;;;618739;23;1292;-74
2023/06/29 01:29:24;;;;;;;4.63;2.75;;;;;;;;;;615172;23;1168;-74
2023/06/29 01:29:40;;;;;;;3.92;2.70;;;;;;;;;;613854;23;1268;-74
2023/06/29 01:30:01;;;;;;;3.40;2.60;;;;;;;;;;614312;23;1415;-74
2023/06/29 01:30:20;;;;;;;4.68;2.55;;;;;;;;;;613309;23;1439;-75
2023/06/29 01:30:49;;;;;;;3.80;2.40;;;;;;;;;;617218;23;1438;-75
2023/06/29 01:31:14;;;;;;;4.72;2.75;;;;;;;;;;615892;23;1510;-75
2023/06/29 01:31:30;;;;;;;5.38;2.67;;;;;;;;;;617834;23;883;-74
2023/06/29 01:31:47;;;;;;;4.80;2.53;;;;;;;;;;620073;23;848;-74
2023/06/29 01:32:14;;;;;;;4.22;2.50;;;;;;;;;;616513;23;1340;-74
2023/06/29 01:32:36;;;;;;;3.60;2.40;;;;;;;;;;618578;23;1449;-73
2023/06/29 01:32:52;;;;;;;4.15;2.50;;;;;;;;;;620371;23;879;-73
2023/06/29 01:33:13;;;;;;;3.72;2.65;;;;;;;;;;617188;23;1575;-74
2023/06/29 01:33:36;;;;;;;4.00;2.80;;;;;;;;;;622378;23;1525;-74
2023/06/29 01:33:52;;;;;;;5.00;2.78;;;;;;;;;;617247;23;1380;-72
2023/06/29 01:34:36;;;;;;;4.63;2.60;;;;;;;;;;620253;23;895;-75
2023/06/29 01:34:56;;;;;;;4.25;2.45;;;;;;;;;;608498;24;1369;-74
2023/06/29 01:35:36;;;;;;;4.15;2.50;;;;;;;;;;614667;23;1544;-74
2023/06/29 01:36:51;;;;;;;4.40;2.60;;;;;;;;;;620347;23;1250;-74
2023/06/29 01:37:34;;;;;;;4.38;2.60;;;;;;;;;;624295;23;1175;-74
2023/06/29 01:37:59;;;;;;;4.38;2.70;;;;;;;;;;631760;23;1366;-75
2023/06/29 01:38:24;;;;;;;4.10;2.50;;;;;;;;;;623236;23;1629;-73
2023/06/29 01:38:48;;;;;;;5.43;2.60;;;;;;;;;;625772;23;1283;-74
2023/06/29 01:39:27;;;;;;;4.55;2.47;;;;;;;;;;625447;23;1466;-74
2023/06/29 01:40:01;;;;;;;3.88;2.63;;;;;;;;;;622801;23;1182;-72
2023/06/29 01:40:31;;;;;;;4.65;2.75;;;;;;;;;;618938;23;1431;-74
2023/06/29 01:40:49;;;;;;;4.78;2.60;;;;;;;;;;628508;23;1484;-74
2023/06/29 01:41:16;;;;;;;5.22;2.60;;;;;;;;;;627675;23;875;-74
2023/06/29 01:41:38;;;;;;;3.85;2.50;;;;;;;;;;621174;23;828;-74
2023/06/29 01:41:55;;;;;;;4.53;2.50;;;;;;;;;;621754;23;1349;-73
2023/06/29 01:42:13;;;;;;;4.90;2.70;;;;;;;;;;622208;23;999;-72
2023/06/29 01:42:32;;;;;;;4.80;2.80;;;;;;;;;;625478;23;800;-74
2023/06/29 01:42:49;;;;;;;3.80;2.70;;;;;;;;;;625309;23;1244;-74
2023/06/29 01:43:08;;;;;;;4.40;2.70;;;;;;;;;;623881;23;1434;-73
2023/06/29 01:43:28;;;;;;;4.13;2.60;;;;;;;;;;618950;23;1245;-74
2023/06/29 01:43:45;;;;;;;3.65;2.50;;;;;;;;;;622682;23;950;-73
2023/06/29 01:44:14;;;;;;;4.88;2.53;;;;;;;;;;623163;23;867;-74
2023/06/29 01:44:30;;;;;;;4.40;2.90;;;;;;;;;;622294;23;1407;-74
2023/06/29 01:44:46;;;;;;;3.65;2.67;;;;;;;;;;624738;23;1319;-73
2023/06/29 01:45:13;;;;;;;3.90;2.55;;;;;;;;;;624375;23;1381;-73
2023/06/29 01:45:30;;;;;;;3.38;2.38;;;;;;;;;;627293;23;1918;-74
2023/06/29 01:45:47;;;;;;;4.10;2.55;;;;;;;;;;625210;23;1444;-73
2023/06/29 01:46:22;;;;;;;3.20;2.30;;;;;;;;;;624802;23;1375;-74
2023/06/29 01:46:39;;;;;;;3.90;2.53;;;;;;;;;;622607;23;1581;-74
2023/06/29 01:46:55;;;;;;;3.63;2.42;;;;;;;;;;625319;23;1399;-74
2023/06/29 01:47:13;;;;;;;3.10;2.25;;;;;;;;;;621364;23;1609;-74
2023/06/29 01:47:30;;;;;;;3.88;2.30;;;;;;;;;;624881;23;1482;-74
2023/06/29 01:47:46;;;;;;;5.60;2.60;;;;;;;;;;625729;23;840;-74
2023/06/29 01:48:11;;;;;;;5.40;2.70;;;;;;;;;;627504;23;1270;-73
2023/06/29 01:48:31;;;;;;;4.03;2.40;;;;;;;;;;625016;23;1354;-73
2023/06/29 01:48:47;;;;;;;4.30;2.45;;;;;;;;;;625605;23;1379;-73
2023/06/29 01:49:04;;;;;;;3.97;2.40;;;;;;;;;;621696;23;1296;-74
2023/06/29 01:49:21;;;;;;;3.55;2.42;;;;;;;;;;617688;23;1221;-74
2023/06/29 01:49:37;;;;;;;3.90;2.70;;;;;;;;;;622188;23;872;-73
2023/06/29 01:49:53;;;;;;;4.40;2.60;;;;;;;;;;623698;23;1508;-73
2023/06/29 01:50:13;;;;;;;4.05;2.50;;;;;;;;;;618972;23;1307;-73
2023/06/29 01:50:32;;;;;;;3.97;2.50;;;;;;;;;;622157;23;1505;-74
2023/06/29 01:50:49;;;;;;;4.70;2.72;;;;;;;;;;621788;23;879;-74
2023/06/29 01:51:16;;;;;;;4.75;2.67;;;;;;;;;;622394;23;1252;-73
2023/06/29 01:51:32;;;;;;;4.38;2.63;;;;;;;;;;622714;23;1468;-74
2023/06/29 01:51:48;;;;;;;3.75;2.55;;;;;;;;;;624777;23;903;-73
2023/06/29 01:52:13;;;;;;;3.90;2.50;;;;;;;;;;622574;23;1343;-74
2023/06/29 01:52:33;;;;;;;4.00;2.60;;;;;;;;;;624953;23;848;-74
2023/06/29 01:52:49;;;;;;;3.92;2.67;;;;;;;;;;622411;23;1315;-73
2023/06/29 01:53:08;;;;;;;3.95;2.70;;;;;;;;;;620875;23;1574;-75
2023/06/29 01:53:28;;;;;;;3.97;2.63;;;;;;;;;;616611;23;1095;-73
2023/06/29 01:53:48;;;;;;;4.07;2.60;;;;;;;;;;622729;23;860;-74
2023/06/29 01:54:19;;;;;;;4.40;2.70;;;;;;;;;;621977;23;892;-74
2023/06/29 01:54:35;;;;;;;3.80;2.45;;;;;;;;;;619083;23;1318;-74
2023/06/29 01:54:54;;;;;;;4.43;2.60;;;;;;;;;;619470;23;1249;-74
2023/06/29 01:55:20;;;;;;;4.22;2.80;;;;;;;;;;617785;23;1258;-74
2023/06/29 01:55:36;;;;;;;4.15;2.50;;;;;;;;;;622562;23;1414;-74
2023/06/29 01:55:52;;;;;;;4.72;2.58;;;;;;;;;;622697;23;1263;-74
2023/06/29 01:56:12;;;;;;;4.10;2.58;;;;;;;;;;619706;23;1387;-74
2023/06/29 01:56:28;;;;;;;3.65;2.50;;;;;;;;;;619799;23;1347;-74
2023/06/29 01:56:44;;;;;;;3.75;2.80;;;;;;;;;;620039;23;867;-74
2023/06/29 01:57:07;;;;;;;3.72;2.67;;;;;;;;;;620509;23;1508;-74
2023/06/29 01:57:22;;;;;;;3.72;2.50;;;;;;;;;;611885;23;1198;-75
2023/06/29 01:57:38;;;;;;;4.27;2.70;;;;;;;;;;623273;23;1304;-74
2023/06/29 01:57:53;;;;;;;4.30;2.75;;;;;;;;;;622651;23;1467;-74
2023/06/29 01:58:10;;;;;;;3.83;2.70;;;;;;;;;;623495;23;1364;-74
2023/06/29 01:58:25;;;;;;;3.38;2.60;;;;;;;;;;622763;23;1347;-74
2023/06/29 01:58:40;;;;;;;3.40;2.30;;;;;;;;;;621945;23;796;-74
2023/06/29 01:58:56;;;;;;;3.70;2.40;;;;;;;;;;624624;23;868;-74
2023/06/29 01:59:11;;;;;;;3.47;2.40;;;;;;;;;;622928;23;900;-74
2023/06/29 01:59:26;;;;;;;3.60;2.33;;;;;;;;;;625381;23;1203;-74
2023/06/29 01:59:44;;;;;;;3.73;2.47;;;;;;;;;;625194;23;1289;-74
2023/06/29 01:59:59;;;;;;;4.90;2.65;;;;;;;;;;626691;23;935;-75
2023/06/29 02:00:15;;;;;;;5.07;2.50;;;;;;;;;;628745;23;816;-74
2023/06/29 02:00:30;;;;;;;3.92;2.40;;;;;;;;;;628097;23;1200;-75
2023/06/29 02:00:45;;;;;;;4.17;2.50;;;;;;;;;;628232;23;1295;-74
2023/06/29 02:01:01;;;;;;;4.97;2.50;;;;;;;;;;628231;23;828;-74
2023/06/29 02:01:16;;;;;;;5.30;2.60;;;;;;;;;;626166;23;1202;-75
2023/06/29 02:01:31;;;;;;;4.68;2.65;;;;;;;;;;626881;23;812;-74
2023/06/29 02:01:47;;;;;;;4.00;2.50;;;;;;;;;;621786;23;796;-74
2023/06/29 02:02:07;;;;;;;3.95;2.38;;;;;;;;;;620680;23;1126;-74
2023/06/29 02:02:31;;;;;;;4.10;2.50;;;;;;;;;;614713;23;1137;-74
2023/06/29 02:02:47;;;;;;;4.70;2.70;;;;;;;;;;625589;23;1295;-74
2023/06/29 02:03:12;;;;;;;4.38;2.70;;;;;;;;;;622243;23;1366;-74
2023/06/29 02:03:28;;;;;;;5.25;2.70;;;;;;;;;;622708;23;880;-74
2023/06/29 02:03:44;;;;;;;4.43;2.65;;;;;;;;;;621457;23;1212;-74
2023/06/29 02:03:59;;;;;;;3.17;2.60;;;;;;;;;;620277;23;1276;-74
2023/06/29 02:04:16;;;;;;;3.88;2.58;;;;;;;;;;616974;23;1241;-75
2023/06/29 02:04:32;;;;;;;5.20;2.70;;;;;;;;;;623187;23;1388;-74
2023/06/29 02:04:47;;;;;;;5.20;2.90;;;;;;;;;;623376;23;1462;-74
2023/06/29 02:05:13;;;;;;;4.00;2.67;;;;;;;;;;616916;23;1221;-74
2023/06/29 02:05:32;;;;;;;3.53;2.60;;;;;;;;;;617300;23;1960;-75
2023/06/29 02:05:48;;;;;;;4.43;2.63;;;;;;;;;;619862;23;1330;-74
2023/06/29 02:06:09;;;;;;;5.45;2.90;;;;;;;;;;619126;23;1296;-74
2023/06/29 02:06:25;;;;;;;5.30;2.80;;;;;;;;;;621209;23;911;-74
2023/06/29 02:06:41;;;;;;;3.87;2.70;;;;;;;;;;621532;23;1243;-74
2023/06/29 02:06:57;;;;;;;4.22;2.60;;;;;;;;;;620128;23;1309;-75
2023/06/29 02:07:13;;;;;;;3.93;2.50;;;;;;;;;;616413;23;1230;-74
2023/06/29 02:07:39;;;;;;;4.18;2.50;;;;;;;;;;620662;23;1208;-74
2023/06/29 02:07:56;;;;;;;4.35;2.70;;;;;;;;;;624251;23;856;-74
2023/06/29 02:08:12;;;;;;;5.20;2.60;;;;;;;;;;620365;23;1210;-73
2023/06/29 02:08:28;;;;;;;4.90;2.53;;;;;;;;;;619925;23;1330;-73
2023/06/29 02:08:44;;;;;;;4.23;2.80;;;;;;;;;;620271;23;944;-73
2023/06/29 02:09:00;;;;;;;4.18;2.85;;;;;;;;;;620303;23;1449;-74
2023/06/29 02:09:16;;;;;;;3.70;2.50;;;;;;;;;;620372;23;883;-74
2023/06/29 02:09:32;;;;;;;3.83;2.35;;;;;;;;;;623198;23;1276;-74
2023/06/29 02:09:48;;;;;;;4.13;2.42;;;;;;;;;;623702;23;915;-73
2023/06/29 02:10:17;;;;;;;4.60;2.60;;;;;;;;;;618711;23;1292;-73
2023/06/29 02:10:33;;;;;;;4.88;2.70;;;;;;;;;;620200;23;1230;-74
2023/06/29 02:10:54;;;;;;;4.20;2.70;;;;;;;;;;618760;23;1372;-74